Effective Sunday, March 17, 2024, the National Weather Service National Data Buoy Center will discontinue its Dial-A-Buoy Interactive Voice Response system. For more information, see Service Change Notice 24-06 (PDF).

Station RIXA2 - Rocky Island, AK Image indicating link to RSS feed of recent meteorological observations for station RIXA2


Conditions at RIXA2 as of
(5:32 am AKST)
1432 GMT on 03/04/2024:
     

Click on the graph icon in the table below to see a time series plot of the last five days of that observation.

5-day plot - Wind Direction Wind Direction (WDIR): E ( 80 deg true )
5-day plot - Wind Speed Wind Speed (WSPD): 15 kts
5-day plot - Wind Gust Wind Gust (GST): 20 kts
5-day plot - Air Temperature Air Temperature (ATMP): 20.3 °F
5-day plot - Dew Point Dew Point (DEWP): 10.9 °F
5-day plot - Wind Chill Wind Chill (CHILL): 5.7 °F
5-day plot - Wind Speed at 10 Meters Wind Speed at 10 meters (WSPD10M): 17 kts
5-day plot - Wind Speed at 20 Meters Wind Speed at 20 meters (WSPD20M): 19 kts
5-day plot -  Wind Speed, Wind Gust and Atmospheric Pressure Combined plot of Wind Speed, Gust, and Air Pressure
Previous observations
TIME
(AKST)
5-day plot - Wind Direction
WDIR
 
5-day plot - Wind Speed
WSPD
kts
5-day plot - Wind Gust
GST
kts
5-day plot - Wave Height
WVHT
ft
5-day plot - Dominant Wave Period
DPD
sec
5-day plot - Average Wave Period
APD
sec
5-day plot - Mean Wave Direction
MWD
 
5-day plot - Atmospheric Pressure
PRES
in
5-day plot - Pressure Tendency
PTDY
in
5-day plot - Air Temperature
ATMP
°F
5-day plot - Water Temperature
WTMP
°F
5-day plot - Dew Point
DEWP
°F
5-day plot - Salinity
SAL
psu
5-day plot - Visibility
VIS
nmi
5-day plot - Tide (above MLLW)
TIDE
ft
2024-03-04 05:22 am E 13 22------ 20.1- 10.8---
2024-03-04 05:12 am E 12 22------ 20.5- 11.3---
2024-03-04 05:02 am E 11 21------ 20.7- 11.8---
2024-03-04 04:52 am E 11 18------ 20.7- 11.8---
2024-03-04 04:42 am E 10 19------ 20.7- 11.8---
2024-03-04 04:32 am E 12 20------ 20.7- 11.8---
2024-03-04 04:22 am E 12 20------ 20.8- 12.2---
2024-03-04 04:12 amENE 16 24------ 21.0- 11.1---
2024-03-04 04:02 amENE 18 23------ 20.8- 10.8---
2024-03-04 03:42 am E 11 21------ 20.5- 12.0---
2024-03-04 03:32 am E 12 21------ 20.7- 11.8---
2024-03-04 03:22 am E 13 23------ 20.7- 11.8---
2024-03-04 03:12 am E 13 21------ 21.0- 12.6---
2024-03-04 03:02 am E 14 25------ 21.2- 12.6---
2024-03-04 02:52 amENE 16 23------ 21.4- 12.4---
2024-03-04 02:42 am E 15 24------ 21.6- 13.3---
2024-03-04 02:32 am E 11 20------ 21.0- 12.4---
2024-03-04 02:22 am E 12 23------ 21.0- 12.2---
2024-03-04 02:12 am E 15 29------ 21.4- 12.7---
2024-03-04 02:02 am E 19 27------ 21.9- 12.6---
2024-03-04 01:53 amENE 20 27------ 21.7- 11.1---
2024-03-04 01:42 amENE 22 30------ 21.4- 10.8---
2024-03-04 01:32 amENE 22 29------ 21.6- 11.1---
2024-03-04 01:22 amENE 21 27------ 21.4- 10.9---
2024-03-04 01:12 amENE 20 28------ 21.6- 11.3---
2024-03-04 01:02 am E 20 27------ 21.4- 10.9---
2024-03-04 12:52 am E 17 28------ 21.2- 11.5---
2024-03-04 12:42 amENE 22 29------ 21.6- 11.5---
2024-03-04 12:32 amENE 23 30------ 21.4- 11.3---
2024-03-04 12:22 amENE 23 28------ 21.2- 11.1---
2024-03-04 12:13 amENE 23 30------ 21.6- 11.8---
2024-03-04 12:02 am E 21 33------ 21.4- 12.0---
2024-03-03 11:52 pmENE 24 32------ 21.6- 11.5---
2024-03-03 11:42 pmENE 24 32------ 21.4- 11.7---
2024-03-03 11:32 pmENE 26 32------ 21.2- 11.7---
2024-03-03 11:22 pmENE 25 33------ 21.4- 11.7---
2024-03-03 11:12 pmENE 24 32------ 21.4- 11.1---
2024-03-03 11:02 pmENE 26 33------ 21.2- 10.9---
2024-03-03 10:52 pmENE 24 31------ 21.4- 10.9---
2024-03-03 10:42 pmENE 26 35------ 21.2- 10.0---
2024-03-03 10:32 pmENE 27 35------ 21.4- 10.2---
2024-03-03 10:22 pmENE 24 33------ 21.4- 10.0---
2024-03-03 10:12 pm E 21 30------ 21.4- 10.9---
2024-03-03 10:02 pm E 15 25------ 21.0- 10.2---
2024-03-03 09:52 pm E 14 26------ 20.8- 9.3---
2024-03-03 09:42 pm E 16 27------ 21.0- 9.7---
2024-03-03 09:22 pm E 13 23------ 20.8- 8.6---
2024-03-03 09:12 pmESE 11 19------ 20.8- 8.8---
2024-03-03 09:02 pm E 15 27------ 20.8- 8.6---
2024-03-03 08:52 pm E 13 23------ 20.8- 8.1---
2024-03-03 08:42 pmESE 11 20------ 20.8- 8.1---
2024-03-03 08:32 pm E 9 19------ 20.8- 8.4---
2024-03-03 08:22 pmESE 13 23------ 21.2- 9.1---
2024-03-03 08:12 pm E 12 28------ 20.8- 7.9---
2024-03-03 08:02 pmESE 12 23------ 21.0- 8.2---
2024-03-03 07:52 pmESE 12 23------ 21.4- 9.5---
2024-03-03 07:42 pmESE 12 20------ 21.0- 8.1---
2024-03-03 07:32 pmESE 12 22------ 21.2- 8.2---
2024-03-03 07:22 pmESE 10 21------ 21.2- 7.9---
2024-03-03 07:12 pmESE 12 21------ 21.2- 8.2---
2024-03-03 07:02 pmESE 12 20------ 21.2- 8.6---
2024-03-03 06:52 pmESE 10 20------ 21.2- 8.1---
2024-03-03 06:42 pmESE 11 19------ 21.2- 8.1---
2024-03-03 06:32 pmESE 11 20------ 21.2- 7.0---
2024-03-03 06:22 pmESE 11 20------ 21.2- 7.5---
2024-03-03 06:12 pmESE 11 19------ 21.4- 7.9---
2024-03-03 06:02 pmESE 11 25------ 21.4- 7.5---
2024-03-03 05:52 pmESE 11 23------ 21.7- 8.2---
2024-03-03 05:42 pm E 12 18------ 21.7- 8.4---
2024-03-03 05:32 pm E 12 24------ 21.9- 8.8---
2024-03-03 05:22 pm E 17 31------ 22.1- 8.8---
2024-03-03 05:13 pmENE 22 34------ 22.1- 9.0---
2024-03-03 05:02 pmENE 20 33------ 22.5- 10.0---
2024-03-03 04:52 pmENE 26 34------ 22.1- 8.6---
2024-03-03 04:43 pm NE 25 36------ 22.5- 9.5---
2024-03-03 04:32 pmENE 28 40------ 22.1- 8.4---
2024-03-03 04:22 pm NE 27 38------ 21.9- 7.7---
2024-03-03 04:12 pm NE 30 40------ 21.9- 8.2---
2024-03-03 04:02 pm NE 28 37------ 21.9- 8.2---
2024-03-03 03:52 pm NE 28 37------ 21.9- 8.8---
2024-03-03 03:42 pm NE 31 41------ 21.6- 7.9---
2024-03-03 03:22 pm NE 26 38------ 21.6- 8.2---
2024-03-03 03:12 pm NE 28 44------ 21.6- 8.2---
2024-03-03 02:52 pm NE 33 43------ 21.2- 8.4---
2024-03-03 02:42 pmENE 30 44------ 21.2- 8.4---
2024-03-03 02:32 pm NE 32 43------ 21.4- 9.5---
2024-03-03 02:22 pmENE 31 42------ 21.2- 9.7---
2024-03-03 02:12 pm NE 30 42------ 21.4- 10.0---
2024-03-03 02:02 pm NE 32 46------ 20.8- 9.0---
2024-03-03 01:52 pmENE 34 43------ 20.8- 9.1---
2024-03-03 01:42 pmENE 33 47------ 21.0- 10.0---
2024-03-03 01:32 pmENE 35 46------ 21.0- 10.8---
2024-03-03 01:22 pmENE 34 43------ 21.0- 10.8---
2024-03-03 01:12 pmENE 33 44------ 20.8- 10.6---
2024-03-03 01:02 pmENE 35 48------ 20.7- 10.6---
2024-03-03 12:53 pmENE 36 48------ 20.5- 10.2---
2024-03-03 12:42 pmENE 34 44------ 20.7- 10.9---
2024-03-03 12:32 pmENE 35 47------ 20.3- 10.0---
2024-03-03 12:22 pmENE 34 50------ 20.5- 10.4---
2024-03-03 12:12 pmENE 36 50------ 20.1- 10.2---
2024-03-03 12:02 pmENE 34 43------ 20.1- 10.2---
2024-03-03 11:52 amENE 36 47------ 19.6- 9.1---
2024-03-03 11:42 amENE 35 51------ 19.8- 9.9---
2024-03-03 11:32 amENE 36 49------ 19.2- 9.0---
2024-03-03 11:22 amENE 37 48------ 19.2- 8.8---
2024-03-03 11:12 amENE 35 46------ 19.2- 9.3---
2024-03-03 11:03 amENE 35 48------ 19.0- 8.8---
2024-03-03 10:52 amENE 37 47------ 19.2- 9.7---
2024-03-03 10:42 amENE 37 52------ 19.2- 9.7---
2024-03-03 10:32 amENE 36 48------ 19.0- 9.7---
2024-03-03 10:22 am E 30 44------ 19.2- 9.9---
2024-03-03 10:12 am E 29 49------ 19.0- 9.7---
2024-03-03 10:02 am E 26 42------ 18.7- 7.9---
2024-03-03 09:52 am E 26 40------ 18.3- 7.3---
2024-03-03 09:42 am E 25 43------ 18.3- 8.2---
2024-03-03 09:32 am E 28 42------ 18.1- 7.3---
2024-03-03 09:22 am E 30 43------ 18.1- 7.9---
2024-03-03 09:12 am E 22 40------ 18.1- 7.9---
2024-03-03 09:03 am E 29 42------ 18.1- 8.6---
2024-03-03 08:52 am E 27 46------ 17.8- 7.2---
2024-03-03 08:42 am E 32 46------ 18.0- 8.2---
2024-03-03 08:33 am E 30 42------ 18.1- 8.8---
2024-03-03 08:22 am E 33 48------ 18.0- 8.4---
2024-03-03 08:12 am E 30 43------ 18.0- 8.2---
2024-03-03 08:02 am E 19 37------ 16.9- 6.4---
2024-03-03 07:52 am E 18 39------ 17.1- 7.0---
2024-03-03 07:43 am E 22 40------ 17.1- 6.6---
2024-03-03 07:32 am E 18 42------ 16.9- 7.2---
2024-03-03 07:22 am E 19 35------ 17.4- 8.1---
2024-03-03 07:12 amESE 17 31------ 16.9- 7.5---
2024-03-03 07:03 am E 27 40------ 18.1- 9.3---
2024-03-03 06:52 am E 23 46------ 17.4- 8.2---
2024-03-03 06:42 am E 25 43------ 17.6- 8.6---
2024-03-03 06:32 am E 24 44------ 17.6- 9.0---
2024-03-03 06:22 am E 25 47------ 18.0- 9.3---
2024-03-03 06:12 amENE 31 49------ 18.3- 9.7---
2024-03-03 06:02 am E 25 43------ 17.6- 8.6---
2024-03-03 05:52 amESE 17 38------ 16.0- 5.9---
2024-03-03 05:42 am E 22 42------ 17.1- 7.9---
2024-03-03 05:32 amESE 20 40------ 17.1- 7.9---
2024-03-03 05:22 am E 24 45------ 17.6- 8.8---
2024-03-03 05:12 am E 23 42------ 17.1- 7.5---
2024-03-03 05:02 am E 19 41------ 16.7- 7.5---
2024-03-03 04:52 am E 29 48------ 17.8- 8.6---